Time;durP1;ratioP1;P1;durP2;ratioP2;P2;SDS_P1;SDS_P2;PMS_P1;PMS_P2;Temp;Humidity;BMP_temperature;BMP_pressure;BME280_temperature;BME280_humidity;BME280_pressure;Samples;Min_cycle;Max_cycle;Signal;HPM_P1;HPM_P2
2023/05/02 00:00:12;;;;;;;10.68;7.03;;;10.80;99.90;;;;;;5111549;28;20410;-71
2023/05/02 00:02:38;;;;;;;12.00;6.55;;;10.80;99.90;;;;;;5111616;28;20561;-71
2023/05/02 00:05:05;;;;;;;14.88;7.38;;;10.70;99.90;;;;;;5110350;28;20134;-71
2023/05/02 00:07:31;;;;;;;10.98;6.07;;;10.70;99.90;;;;;;5113639;28;20425;-71
2023/05/02 00:09:57;;;;;;;14.25;6.53;;;10.60;99.90;;;;;;5115174;28;20032;-69
2023/05/02 00:12:22;;;;;;;11.73;6.22;;;10.60;99.90;;;;;;5115227;28;20096;-69
2023/05/02 00:14:48;;;;;;;12.07;5.97;;;10.60;99.90;;;;;;5115267;28;20042;-69
2023/05/02 00:17:19;;;;;;;11.60;5.93;;;10.60;99.90;;;;;;5115219;28;20111;-69
2023/05/02 00:19:46;;;;;;;10.23;5.70;;;10.50;99.90;;;;;;5115090;28;20510;-69
2023/05/02 00:22:11;;;;;;;12.80;5.43;;;10.40;99.90;;;;;;5115204;28;20414;-71
2023/05/02 00:24:37;;;;;;;11.25;5.55;;;10.40;99.90;;;;;;5113545;28;20043;-69
2023/05/02 00:27:03;;;;;;;9.18;4.95;;;10.40;99.90;;;;;;5114951;28;20042;-72
2023/05/02 00:29:29;;;;;;;10.65;5.13;;;10.30;99.90;;;;;;5115094;28;20032;-69
2023/05/02 00:31:55;;;;;;;9.60;5.20;;;10.30;99.90;;;;;;5114859;27;20479;-71
2023/05/02 00:34:21;;;;;;;12.45;5.07;;;10.30;99.90;;;;;;5114956;28;20036;-69
2023/05/02 00:36:47;;;;;;;11.93;4.90;;;10.20;99.90;;;;;;5114569;28;20043;-69
2023/05/02 00:39:12;;;;;;;9.35;5.03;;;10.20;99.90;;;;;;5114432;28;20050;-69
2023/05/02 00:41:38;;;;;;;10.02;5.75;;;10.20;99.90;;;;;;5113446;28;20036;-69
2023/05/02 00:44:04;;;;;;;11.93;5.43;;;10.20;99.90;;;;;;5114764;28;20043;-69
2023/05/02 00:46:30;;;;;;;10.52;5.57;;;10.10;99.90;;;;;;5113303;28;20046;-69
2023/05/02 00:48:55;;;;;;;11.18;4.70;;;10.20;99.90;;;;;;5114649;28;20115;-71
2023/05/02 00:51:21;;;;;;;7.63;5.35;;;10.20;99.90;;;;;;5114587;28;20042;-71
2023/05/02 00:53:47;;;;;;;11.57;5.68;;;10.30;99.90;;;;;;5114394;28;20031;-68
2023/05/02 00:56:13;;;;;;;11.18;5.55;;;10.20;99.90;;;;;;5114492;28;20483;-68
2023/05/02 00:58:39;;;;;;;10.75;5.72;;;10.30;99.90;;;;;;5113264;28;20044;-68
2023/05/02 01:01:14;;;;;;;10.32;5.45;;;10.30;99.90;;;;;;5113043;28;20483;-71
2023/05/02 01:03:58;;;;;;;14.60;5.43;;;10.30;99.90;;;;;;5114258;28;20526;-71
2023/05/02 01:06:38;;;;;;;10.00;4.97;;;10.30;99.90;;;;;;5114076;28;20051;-69
2023/05/02 01:09:26;;;;;;;10.45;5.28;;;10.30;99.90;;;;;;5095995;28;20044;-69
2023/05/02 01:12:09;;;;;;;10.10;5.53;;;10.20;99.90;;;;;;5113158;28;20055;-68
2023/05/02 01:14:41;;;;;;;10.10;4.35;;;10.20;99.90;;;;;;5114105;28;20100;-68
2023/05/02 01:17:11;;;;;;;9.48;5.57;;;10.20;99.90;;;;;;5112203;28;20735;-68
2023/05/02 01:19:40;;;;;;;8.43;5.28;;;10.10;99.90;;;;;;5113710;28;20047;-69
2023/05/02 01:22:09;;;;;;;10.38;5.38;;;10.20;99.90;;;;;;5113985;28;20035;-71
2023/05/02 01:24:46;;;;;;;9.05;4.88;;;10.20;99.90;;;;;;5113834;27;20043;-72
2023/05/02 01:27:38;;;;;;;12.25;5.22;;;10.20;99.90;;;;;;5113613;28;20035;-71
2023/05/02 01:30:06;;;;;;;8.77;4.45;;;10.20;99.90;;;;;;5113924;28;20039;-71
2023/05/02 01:32:35;;;;;;;13.05;4.97;;;10.10;99.90;;;;;;5114026;28;20062;-71
2023/05/02 01:35:02;;;;;;;11.10;4.38;;;10.10;99.90;;;;;;5113649;28;20039;-71
2023/05/02 01:37:29;;;;;;;11.10;5.30;;;10.10;99.90;;;;;;5113472;28;20093;-71
2023/05/02 01:39:57;;;;;;;12.52;6.03;;;10.10;99.90;;;;;;5113364;27;20051;-71
2023/05/02 01:42:25;;;;;;;17.20;5.65;;;10.00;99.90;;;;;;5113859;28;20035;-71
2023/05/02 01:44:53;;;;;;;17.02;6.20;;;10.00;99.90;;;;;;5113578;28;20040;-71
2023/05/02 01:47:20;;;;;;;17.60;5.13;;;9.90;99.90;;;;;;5113591;28;20106;-71
2023/05/02 01:49:46;;;;;;;14.27;4.88;;;9.60;99.90;;;;;;5113468;28;20036;-71
2023/05/02 01:52:14;;;;;;;18.45;4.07;;;9.30;99.90;;;;;;5113262;27;20092;-71
2023/05/02 01:54:41;;;;;;;16.20;4.43;;;9.10;99.90;;;;;;5113475;28;20557;-70
2023/05/02 01:57:08;;;;;;;11.48;3.92;;;8.90;99.90;;;;;;5112015;28;20046;-71
2023/05/02 01:59:35;;;;;;;16.38;4.25;;;8.90;99.90;;;;;;5112292;28;20172;-71
2023/05/02 02:02:03;;;;;;;11.38;4.80;;;8.70;99.90;;;;;;5113464;28;20099;-71
2023/05/02 02:04:30;;;;;;;13.90;4.03;;;8.70;99.90;;;;;;5113032;28;20056;-71
2023/05/02 02:07:01;;;;;;;12.48;4.30;;;8.60;99.90;;;;;;5111562;28;20047;-70
2023/05/02 02:09:26;;;;;;;19.00;5.88;;;8.60;99.90;;;;;;5113255;28;20119;-70
2023/05/02 02:12:06;;;;;;;12.63;4.18;;;8.50;99.90;;;;;;5113239;28;20071;-70
2023/05/02 02:14:45;;;;;;;14.90;4.43;;;8.50;99.90;;;;;;5111638;28;20044;-71
2023/05/02 02:17:35;;;;;;;16.95;4.70;;;8.50;99.90;;;;;;5078278;28;20040;-71
2023/05/02 02:20:04;;;;;;;15.90;4.13;;;8.60;99.90;;;;;;5112954;28;20052;-71
2023/05/02 02:22:33;;;;;;;26.20;5.47;;;8.50;99.90;;;;;;5111513;28;20051;-71
2023/05/02 02:24:59;;;;;;;13.95;4.40;;;8.60;99.90;;;;;;5112605;28;20071;-71
2023/05/02 02:27:25;;;;;;;15.98;5.10;;;8.60;99.90;;;;;;5111298;28;20054;-71
2023/05/02 02:29:51;;;;;;;19.95;5.95;;;8.60;99.90;;;;;;5112346;28;20118;-71
2023/05/02 02:32:16;;;;;;;21.05;5.97;;;8.60;99.90;;;;;;5112634;28;20032;-71
2023/05/02 02:34:42;;;;;;;25.35;6.50;;;8.60;99.90;;;;;;5112703;28;20097;-71
2023/05/02 02:37:18;;;;;;;22.65;6.35;;;8.60;99.90;;;;;;5110951;28;20043;-71
2023/05/02 02:40:02;;;;;;;18.15;5.72;;;8.50;99.90;;;;;;5112454;28;20045;-71
2023/05/02 02:42:54;;;;;;;19.02;5.03;;;8.50;99.90;;;;;;5112742;28;20095;-70
2023/05/02 02:45:32;;;;;;;19.15;5.38;;;8.40;99.90;;;;;;5112466;28;20039;-70
2023/05/02 02:48:19;;;;;;;21.92;4.65;;;8.40;99.90;;;;;;5112351;28;20038;-71
2023/05/02 02:51:22;;;;;;;19.15;4.72;;;8.40;99.90;;;;;;5112624;28;20071;-71
2023/05/02 02:54:04;;;;;;;26.42;5.03;;;8.30;99.90;;;;;;5112239;28;20035;-71
2023/05/02 02:56:39;;;;;;;21.48;4.82;;;8.30;99.90;;;;;;5112044;28;20083;-70
2023/05/02 02:59:23;;;;;;;19.83;5.20;;;8.30;99.90;;;;;;5111213;28;20050;-71
2023/05/02 03:02:01;;;;;;;14.93;4.20;;;8.20;99.90;;;;;;5112455;28;20039;-70
2023/05/02 03:04:29;;;;;;;12.35;3.97;;;8.20;99.90;;;;;;5112249;28;20050;-71
2023/05/02 03:06:55;;;;;;;22.88;4.95;;;8.20;99.90;;;;;;5111891;28;20043;-70
2023/05/02 03:09:21;;;;;;;21.13;5.82;;;8.10;99.90;;;;;;5093836;28;20040;-71
2023/05/02 03:11:46;;;;;;;15.90;4.22;;;8.20;99.90;;;;;;5112309;28;20036;-70
2023/05/02 03:14:12;;;;;;;16.63;4.07;;;8.10;99.90;;;;;;5110785;28;20494;-70
2023/05/02 03:16:40;;;;;;;16.13;4.35;;;8.10;99.90;;;;;;5111902;28;20062;-71
2023/05/02 03:19:07;;;;;;;18.38;4.47;;;8.10;99.90;;;;;;5112128;28;20047;-70
2023/05/02 03:21:33;;;;;;;11.27;3.75;;;8.10;99.90;;;;;;5112008;28;20042;-71
2023/05/02 03:24:03;;;;;;;19.88;4.40;;;8.10;99.90;;;;;;5111831;28;20035;-71
2023/05/02 03:26:29;;;;;;;14.00;4.05;;;8.00;99.90;;;;;;5111892;28;20051;-71
2023/05/02 03:28:55;;;;;;;14.65;4.75;;;8.00;99.90;;;;;;5112014;28;20031;-70
2023/05/02 03:31:21;;;;;;;16.13;4.68;;;7.90;99.90;;;;;;5112010;28;20036;-70
2023/05/02 03:33:48;;;;;;;19.30;4.93;;;7.90;99.90;;;;;;5110722;28;20039;-71
2023/05/02 03:36:14;;;;;;;14.00;4.00;;;7.90;99.90;;;;;;5111719;28;20127;-70
2023/05/02 03:38:40;;;;;;;13.88;3.80;;;7.90;99.90;;;;;;5111557;28;20118;-69
2023/05/02 03:41:05;;;;;;;13.50;3.67;;;7.80;99.90;;;;;;5113213;28;20586;-71
2023/05/02 03:43:31;;;;;;;15.80;3.90;;;7.80;99.90;;;;;;5115892;28;20027;-69
2023/05/02 03:45:57;;;;;;;13.02;4.03;;;7.90;99.90;;;;;;5115742;28;20082;-69
2023/05/02 03:48:22;;;;;;;11.85;2.90;;;7.90;99.90;;;;;;5115649;28;20063;-68
2023/05/02 03:50:49;;;;;;;15.32;2.80;;;7.90;99.90;;;;;;5115665;28;20499;-68
2023/05/02 03:53:17;;;;;;;11.68;3.40;;;7.90;99.90;;;;;;5115937;28;20027;-68
2023/05/02 03:55:43;;;;;;;13.50;2.92;;;7.80;99.90;;;;;;5115712;28;20047;-68
2023/05/02 03:58:12;;;;;;;5.95;2.67;;;7.80;99.90;;;;;;5115603;28;20035;-68
2023/05/02 04:00:37;;;;;;;12.52;3.38;;;7.70;99.90;;;;;;5115534;28;20042;-68
2023/05/02 04:03:03;;;;;;;5.88;2.25;;;7.70;99.90;;;;;;5115481;28;20575;-69
2023/05/02 04:05:29;;;;;;;11.00;2.47;;;7.80;99.90;;;;;;5115101;28;20043;-68
2023/05/02 04:07:55;;;;;;;10.15;2.38;;;7.70;99.90;;;;;;5115371;28;20043;-68
2023/05/02 04:10:21;;;;;;;13.82;2.92;;;7.70;99.90;;;;;;5115252;28;20509;-68
2023/05/02 04:12:46;;;;;;;9.50;2.92;;;7.70;99.90;;;;;;5115294;28;20124;-68
2023/05/02 04:15:12;;;;;;;9.40;1.80;;;7.70;99.90;;;;;;5113757;28;20039;-68
2023/05/02 04:17:38;;;;;;;13.27;4.32;;;7.70;99.90;;;;;;5115148;28;20036;-70
2023/05/02 04:20:04;;;;;;;10.50;2.45;;;7.70;99.90;;;;;;5113670;28;20055;-70
2023/05/02 04:22:30;;;;;;;9.63;2.47;;;7.70;99.90;;;;;;5115279;28;20114;-69
2023/05/02 04:24:59;;;;;;;10.05;3.78;;;7.80;99.90;;;;;;5114891;28;20085;-69
2023/05/02 04:27:25;;;;;;;6.05;1.60;;;7.70;99.90;;;;;;5114848;28;20085;-70
2023/05/02 04:29:52;;;;;;;7.85;1.95;;;7.80;99.90;;;;;;5113567;28;20044;-70
2023/05/02 04:32:18;;;;;;;12.52;2.50;;;7.80;99.90;;;;;;5114959;28;20039;-70
2023/05/02 04:34:43;;;;;;;7.82;1.63;;;7.80;99.90;;;;;;5114720;28;20035;-70
2023/05/02 04:37:09;;;;;;;10.00;2.17;;;7.70;99.90;;;;;;5115028;28;20514;-70
2023/05/02 04:39:34;;;;;;;4.25;2.30;;;7.70;99.90;;;;;;5134759;22;20051;-67
2023/05/02 04:42:00;;;;;;;6.25;1.75;;;7.70;99.90;;;;;;5114798;28;20031;-68
2023/05/02 04:44:26;;;;;;;9.85;2.22;;;7.70;99.90;;;;;;5114569;28;20052;-67
2023/05/02 04:46:51;;;;;;;11.23;2.38;;;7.70;99.90;;;;;;5114373;28;20078;-67
2023/05/02 04:49:17;;;;;;;5.88;1.95;;;7.70;99.90;;;;;;5114454;28;20503;-67
2023/05/02 04:51:43;;;;;;;7.32;1.90;;;7.80;99.90;;;;;;5114181;28;20678;-67
2023/05/02 04:54:09;;;;;;;5.18;1.80;;;7.80;99.90;;;;;;5114688;28;20035;-67
2023/05/02 04:56:34;;;;;;;4.68;1.83;;;7.80;99.90;;;;;;5113080;28;20054;-67
2023/05/02 04:59:00;;;;;;;10.23;2.17;;;7.80;99.90;;;;;;5114438;28;20031;-68
2023/05/02 05:01:26;;;;;;;5.85;2.13;;;7.80;99.90;;;;;;5114337;28;20036;-68
2023/05/02 05:03:53;;;;;;;4.43;1.95;;;7.80;99.90;;;;;;5114204;28;20075;-67
2023/05/02 05:06:18;;;;;;;7.72;2.05;;;7.80;99.90;;;;;;5114085;28;20080;-67
2023/05/02 05:08:45;;;;;;;6.57;2.00;;;7.80;99.90;;;;;;5114242;28;20032;-68
2023/05/02 05:11:11;;;;;;;8.02;2.47;;;7.80;99.90;;;;;;5112913;28;20100;-67
2023/05/02 05:13:36;;;;;;;7.88;1.98;;;7.70;99.90;;;;;;5114160;28;20039;-67
2023/05/02 05:16:03;;;;;;;6.80;1.85;;;7.70;99.90;;;;;;5114019;28;20491;-68
2023/05/02 05:18:29;;;;;;;4.97;1.80;;;7.70;99.90;;;;;;5113763;28;20043;-67
2023/05/02 05:20:54;;;;;;;5.80;2.38;;;7.70;99.90;;;;;;5114212;28;20126;-67
2023/05/02 05:23:20;;;;;;;11.35;3.17;;;7.60;99.90;;;;;;5114085;28;20036;-67
2023/05/02 05:25:46;;;;;;;8.18;2.15;;;7.70;99.90;;;;;;5113907;28;20527;-67
2023/05/02 05:28:11;;;;;;;10.85;2.67;;;7.60;99.90;;;;;;5113891;28;20482;-67
2023/05/02 05:30:37;;;;;;;15.20;3.08;;;7.70;99.90;;;;;;5113838;28;20490;-67
2023/05/02 05:33:03;;;;;;;9.40;2.78;;;7.70;99.90;;;;;;5113673;28;20073;-67
2023/05/02 05:35:28;;;;;;;10.57;2.88;;;7.60;99.90;;;;;;5112623;28;20044;-67
2023/05/02 05:37:54;;;;;;;7.43;2.78;;;7.60;99.90;;;;;;5113703;28;20047;-67
2023/05/02 05:40:20;;;;;;;8.57;3.63;;;7.60;99.90;;;;;;5113407;28;20051;-67
2023/05/02 05:42:45;;;;;;;13.45;3.20;;;7.60;99.90;;;;;;5113648;28;20039;-67
2023/05/02 05:45:11;;;;;;;7.80;2.75;;;7.70;99.90;;;;;;5113335;28;20523;-67
2023/05/02 05:47:37;;;;;;;9.10;2.67;;;7.60;99.90;;;;;;5113268;28;20031;-67
2023/05/02 05:50:03;;;;;;;9.13;2.85;;;7.60;99.90;;;;;;5113537;28;20112;-67
2023/05/02 05:52:28;;;;;;;12.82;2.72;;;7.60;99.90;;;;;;5113619;28;20114;-67
2023/05/02 05:54:55;;;;;;;10.70;3.30;;;7.60;99.90;;;;;;5113278;28;20050;-67
2023/05/02 05:57:21;;;;;;;11.75;3.30;;;7.60;99.90;;;;;;5113137;28;20403;-67
2023/05/02 05:59:47;;;;;;;11.80;3.00;;;7.60;99.90;;;;;;5113245;28;20043;-67
2023/05/02 06:02:14;;;;;;;7.00;2.60;;;7.70;99.90;;;;;;5113120;28;20126;-67
2023/05/02 06:04:40;;;;;;;9.82;2.45;;;7.70;99.90;;;;;;5112772;28;20039;-67
2023/05/02 06:07:05;;;;;;;9.00;3.50;;;7.70;99.90;;;;;;5113045;28;20041;-67
2023/05/02 06:09:31;;;;;;;9.45;2.90;;;7.80;99.90;;;;;;5113112;28;20076;-67
2023/05/02 06:11:56;;;;;;;9.60;3.03;;;7.80;99.90;;;;;;5113088;28;20035;-67
2023/05/02 06:14:22;;;;;;;9.23;2.60;;;7.80;99.90;;;;;;5112921;28;20119;-67
2023/05/02 06:16:47;;;;;;;10.65;3.20;;;7.70;99.90;;;;;;5112431;28;20413;-66
2023/05/02 06:19:14;;;;;;;7.85;2.83;;;7.80;99.90;;;;;;5112726;28;20062;-65
2023/05/02 06:21:39;;;;;;;8.52;2.95;;;7.90;99.90;;;;;;5113018;28;20152;-66
2023/05/02 06:24:05;;;;;;;8.07;3.30;;;7.80;99.90;;;;;;5112283;28;20071;-66
2023/05/02 06:26:31;;;;;;;7.28;2.33;;;7.90;99.90;;;;;;5101373;28;20163;-66
2023/05/02 06:28:56;;;;;;;10.48;2.95;;;7.90;99.90;;;;;;5101592;28;20036;-66
2023/05/02 06:31:22;;;;;;;6.47;2.40;;;8.00;99.90;;;;;;5096213;28;20040;-67
2023/05/02 06:33:47;;;;;;;10.30;3.10;;;8.00;99.90;;;;;;5092251;28;20118;-66
2023/05/02 06:36:13;;;;;;;10.10;2.92;;;8.10;99.90;;;;;;5092333;28;20048;-66
2023/05/02 06:38:39;;;;;;;9.15;3.08;;;8.10;99.90;;;;;;5092339;28;20523;-66
2023/05/02 06:41:05;;;;;;;11.98;2.28;;;8.20;99.90;;;;;;5090729;28;20486;-66
2023/05/02 06:43:31;;;;;;;9.88;2.78;;;8.20;99.90;;;;;;5097297;28;20115;-66
2023/05/02 06:45:57;;;;;;;7.20;2.58;;;8.20;99.90;;;;;;5094391;28;20080;-66
2023/05/02 06:48:23;;;;;;;11.48;3.78;;;8.20;99.30;;;;;;5097409;28;20078;-66
2023/05/02 06:50:50;;;;;;;6.43;2.35;;;8.20;99.70;;;;;;5103180;28;20067;-66
2023/05/02 06:53:16;;;;;;;5.88;2.42;;;8.10;98.90;;;;;;5112246;28;20572;-66
2023/05/02 06:55:43;;;;;;;7.70;2.78;;;8.20;99.00;;;;;;5106190;27;20032;-66
2023/05/02 06:58:08;;;;;;;9.05;3.03;;;8.30;98.60;;;;;;5094877;28;20044;-66
2023/05/02 07:00:34;;;;;;;8.43;1.92;;;8.30;98.40;;;;;;5091497;28;20507;-67
2023/05/02 07:02:59;;;;;;;8.23;2.22;;;8.40;97.60;;;;;;5099642;28;20057;-66
2023/05/02 07:05:25;;;;;;;6.45;2.30;;;8.30;96.80;;;;;;5103587;28;20132;-66
2023/05/02 07:07:50;;;;;;;10.90;2.75;;;8.50;97.10;;;;;;5107947;28;20503;-66
2023/05/02 07:10:16;;;;;;;6.82;2.13;;;8.70;97.10;;;;;;5097561;28;20040;-66
2023/05/02 07:12:41;;;;;;;8.48;2.83;;;8.70;96.90;;;;;;5091823;28;20039;-66
2023/05/02 07:15:07;;;;;;;7.63;2.35;;;8.80;96.80;;;;;;5091532;28;20063;-67
2023/05/02 07:17:33;;;;;;;7.60;2.40;;;8.90;96.90;;;;;;5094033;28;20127;-66
2023/05/02 07:19:58;;;;;;;5.32;2.97;;;9.00;96.60;;;;;;5094941;28;20055;-67
2023/05/02 07:22:25;;;;;;;5.47;2.60;;;9.10;96.70;;;;;;5101409;28;20042;-66
2023/05/02 07:25:00;;;;;;;8.27;2.22;;;9.20;96.90;;;;;;5113206;28;20043;-66
2023/05/02 07:27:26;;;;;;;7.55;3.40;;;9.20;96.40;;;;;;5099055;28;20044;-66
2023/05/02 07:29:52;;;;;;;7.03;2.50;;;9.20;96.80;;;;;;5095571;28;20032;-66
2023/05/02 07:32:20;;;;;;;8.40;2.25;;;9.20;96.70;;;;;;5096239;28;20043;-67
2023/05/02 07:34:46;;;;;;;12.63;3.05;;;9.30;97.00;;;;;;5095573;28;20040;-66
2023/05/02 07:37:12;;;;;;;6.20;3.10;;;9.30;97.00;;;;;;5095390;28;20039;-66
2023/05/02 07:39:37;;;;;;;8.00;3.17;;;9.40;96.90;;;;;;5095560;28;20040;-66
2023/05/02 07:42:03;;;;;;;6.93;2.80;;;9.20;96.70;;;;;;5095681;28;20040;-67
2023/05/02 07:44:28;;;;;;;5.80;2.55;;;9.30;96.80;;;;;;5095256;28;20090;-67
2023/05/02 07:46:54;;;;;;;12.73;2.92;;;9.20;96.90;;;;;;5095410;28;20040;-66
2023/05/02 07:49:20;;;;;;;8.38;2.65;;;9.10;96.70;;;;;;5095513;28;20115;-67
2023/05/02 07:51:45;;;;;;;7.55;2.53;;;9.20;97.40;;;;;;5095377;28;20032;-67
2023/05/02 07:54:15;;;;;;;15.52;2.40;;;9.20;97.20;;;;;;5095370;28;20032;-66
2023/05/02 07:56:41;;;;;;;4.45;2.53;;;9.20;96.70;;;;;;5095012;28;20032;-66
2023/05/02 07:59:07;;;;;;;8.20;2.60;;;9.10;97.10;;;;;;5095100;28;20040;-67
2023/05/02 08:01:32;;;;;;;8.13;2.38;;;9.10;97.50;;;;;;5095002;28;20043;-67
2023/05/02 08:03:58;;;;;;;6.05;2.28;;;9.10;97.50;;;;;;5100292;28;20495;-67
2023/05/02 08:06:24;;;;;;;7.07;2.83;;;8.80;98.00;;;;;;5094770;28;20043;-66
2023/05/02 08:08:49;;;;;;;11.27;2.22;;;8.70;98.70;;;;;;5095000;28;20045;-66
2023/05/02 08:11:15;;;;;;;7.18;2.05;;;8.90;98.90;;;;;;5094905;28;20032;-66
2023/05/02 08:13:40;;;;;;;6.28;2.88;;;9.00;99.20;;;;;;5094835;28;20496;-66
2023/05/02 08:16:07;;;;;;;3.38;1.20;;;9.20;99.10;;;;;;5094927;28;20036;-65
2023/05/02 08:18:33;;;;;;;6.93;2.15;;;9.50;99.30;;;;;;5094760;28;20044;-66
2023/05/02 08:20:58;;;;;;;7.32;2.50;;;9.80;99.10;;;;;;5093695;28;20086;-66
2023/05/02 08:23:24;;;;;;;4.20;1.42;;;9.50;97.80;;;;;;5094742;28;20032;-66
2023/05/02 08:25:49;;;;;;;4.97;1.92;;;9.80;97.30;;;;;;5093289;28;20523;-66
2023/05/02 08:28:15;;;;;;;7.07;1.90;;;10.00;97.50;;;;;;5093965;28;20310;-66
2023/05/02 08:30:40;;;;;;;8.80;1.42;;;10.10;97.20;;;;;;5093261;28;20040;-66
2023/05/02 08:33:06;;;;;;;5.40;1.95;;;10.00;96.40;;;;;;5102482;28;20039;-66
2023/05/02 08:35:31;;;;;;;5.05;1.95;;;10.00;96.50;;;;;;5113656;28;20046;-67
2023/05/02 08:37:57;;;;;;;2.67;1.23;;;9.80;95.50;;;;;;5114856;28;20555;-66
2023/05/02 08:40:22;;;;;;;5.45;1.50;;;9.70;95.50;;;;;;5114648;28;20076;-66
2023/05/02 08:42:49;;;;;;;4.82;2.13;;;9.60;95.70;;;;;;5111984;28;20071;-66
2023/05/02 08:45:15;;;;;;;3.28;1.48;;;9.60;95.70;;;;;;5102026;28;20388;-67
2023/05/02 08:47:41;;;;;;;4.03;1.23;;;9.60;95.50;;;;;;5104952;28;20035;-67
2023/05/02 08:50:09;;;;;;;2.88;1.00;;;9.70;95.30;;;;;;5109255;28;20046;-67
2023/05/02 08:52:35;;;;;;;2.33;0.93;;;9.70;94.50;;;;;;5101323;28;20051;-67
2023/05/02 08:55:02;;;;;;;3.63;1.35;;;9.90;94.70;;;;;;5102697;28;20139;-67
2023/05/02 08:57:29;;;;;;;2.92;1.55;;;9.80;93.60;;;;;;5105691;28;20503;-67
2023/05/02 08:59:55;;;;;;;4.53;1.10;;;9.90;94.10;;;;;;5104837;28;20043;-67
2023/05/02 09:02:42;;;;;;;3.55;1.40;;;9.90;93.30;;;;;;5103031;28;20032;-66
2023/05/02 09:05:11;;;;;;;3.47;1.10;;;10.00;93.40;;;;;;5103774;28;20047;-66
2023/05/02 09:07:46;;;;;;;3.90;1.30;;;9.90;93.50;;;;;;5102320;28;20415;-67
2023/05/02 09:10:12;;;;;;;4.93;1.63;;;10.10;93.80;;;;;;5101949;28;20036;-67
2023/05/02 09:12:38;;;;;;;3.80;1.45;;;10.10;93.40;;;;;;5092780;28;20121;-67
2023/05/02 09:15:11;;;;;;;4.18;1.33;;;10.20;93.60;;;;;;5093820;28;20072;-67
2023/05/02 09:17:41;;;;;;;;;;;10.30;93.40;;;;;;5093074;28;20066;-66
2023/05/02 09:20:07;;;;;;;2.03;1.00;;;10.30;93.10;;;;;;5093582;28;19969;-67
2023/05/02 09:22:33;;;;;;;4.95;1.40;;;10.20;93.40;;;;;;5099906;28;20483;-69
2023/05/02 09:25:00;;;;;;;5.63;1.55;;;10.20;93.60;;;;;;5112428;28;20044;-66
2023/05/02 09:27:26;;;;;;;3.78;1.30;;;10.20;93.20;;;;;;5113801;28;20050;-67
2023/05/02 09:30:11;;;;;;;5.13;1.70;;;10.20;93.10;;;;;;5112675;28;20031;-67
2023/05/02 09:32:44;;;;;;;1.92;0.80;;;10.10;92.30;;;;;;5113630;28;20039;-68
2023/05/02 09:35:10;;;;;;;3.73;0.77;;;10.60;93.00;;;;;;5112401;28;20151;-68
2023/05/02 09:37:35;;;;;;;4.60;1.20;;;10.80;91.70;;;;;;5113554;28;20688;-67
2023/05/02 09:40:05;;;;;;;3.45;1.55;;;10.60;91.50;;;;;;5106341;28;20395;-67
2023/05/02 09:42:31;;;;;;;3.35;1.20;;;10.60;91.00;;;;;;5113628;28;20032;-67
2023/05/02 09:44:57;;;;;;;2.60;1.15;;;10.50;91.70;;;;;;5112125;28;20491;-67
2023/05/02 09:47:26;;;;;;;4.57;1.30;;;10.50;92.50;;;;;;5113235;28;20036;-67
2023/05/02 09:49:51;;;;;;;3.08;1.10;;;10.20;92.10;;;;;;5113621;28;20082;-67
2023/05/02 09:52:20;;;;;;;2.92;0.73;;;10.20;93.20;;;;;;5108990;28;20060;-68
2023/05/02 09:54:46;;;;;;;5.93;1.30;;;9.90;93.60;;;;;;5101679;28;20068;-68
2023/05/02 09:57:12;;;;;;;3.10;1.10;;;10.00;95.00;;;;;;5101450;28;20043;-67
2023/05/02 09:59:38;;;;;;;3.67;1.10;;;10.00;95.70;;;;;;5101759;28;20040;-68
2023/05/02 10:02:06;;;;;;;4.07;0.90;;;9.80;95.30;;;;;;5104080;28;20043;-67
2023/05/02 10:04:33;;;;;;;4.63;1.20;;;9.90;95.50;;;;;;5113249;28;20040;-66
2023/05/02 10:07:02;;;;;;;3.45;1.17;;;9.90;95.50;;;;;;5113024;28;20040;-68
2023/05/02 10:09:31;;;;;;;3.47;1.10;;;10.00;95.20;;;;;;5113088;28;20080;-67
2023/05/02 10:12:02;;;;;;;5.03;0.98;;;10.00;94.80;;;;;;5111783;28;20040;-67
2023/05/02 10:14:28;;;;;;;3.97;1.17;;;10.30;94.90;;;;;;5112984;28;20116;-67
2023/05/02 10:17:00;;;;;;;4.15;1.20;;;10.40;94.70;;;;;;5111626;28;20410;-67
2023/05/02 10:19:32;;;;;;;3.35;1.20;;;10.70;94.60;;;;;;5111467;28;20044;-68
2023/05/02 10:21:58;;;;;;;3.88;1.10;;;10.70;94.50;;;;;;5113003;28;20088;-67
2023/05/02 10:24:25;;;;;;;2.17;1.17;;;10.60;95.10;;;;;;5112608;28;20046;-67
2023/05/02 10:26:52;;;;;;;5.07;1.23;;;10.40;94.80;;;;;;5112383;28;20491;-67
2023/05/02 10:29:19;;;;;;;1.42;0.77;;;10.30;94.90;;;;;;5112826;28;20044;-67
2023/05/02 10:31:46;;;;;;;2.92;1.10;;;10.00;94.70;;;;;;5112758;28;20164;-67
2023/05/02 10:34:12;;;;;;;3.42;0.90;;;10.00;95.10;;;;;;5111541;28;20028;-68
2023/05/02 10:36:38;;;;;;;3.03;0.90;;;10.00;95.30;;;;;;5112431;28;20047;-68
2023/05/02 10:41:33;;;;;;;5.22;1.13;;;9.90;95.30;;;;;;5069540;28;20129;-71
2023/05/02 10:44:00;;;;;;;4.50;1.85;;;10.00;95.40;;;;;;5053930;28;20496;-71
2023/05/02 10:46:36;;;;;;;5.22;1.30;;;10.10;95.60;;;;;;5053638;28;20404;-71
2023/05/02 10:49:07;;;;;;;2.40;0.85;;;10.20;96.10;;;;;;5071864;28;20056;-70
2023/05/02 10:51:35;;;;;;;5.80;1.60;;;10.20;96.00;;;;;;5051055;28;20033;-70
2023/05/02 10:54:16;;;;;;;3.78;1.05;;;10.40;96.40;;;;;;5051904;28;20123;-71
2023/05/02 10:57:04;;;;;;;7.20;1.40;;;10.60;97.10;;;;;;5051632;28;20276;-71
2023/05/02 10:59:41;;;;;;;1.15;0.77;;;10.60;96.60;;;;;;5051422;28;20476;-71
2023/05/02 11:02:22;;;;;;;10.60;1.88;;;10.50;96.30;;;;;;5051661;28;20464;-71
2023/05/02 11:05:07;;;;;;;3.22;1.20;;;10.60;96.10;;;;;;5051662;28;20040;-71
2023/05/02 11:07:34;;;;;;;6.03;1.30;;;11.00;95.50;;;;;;5051491;28;20420;-70
2023/05/02 11:10:23;;;;;;;3.88;1.05;;;10.80;94.80;;;;;;5051393;28;20404;-71
2023/05/02 11:12:54;;;;;;;4.10;1.50;;;10.70;93.90;;;;;;5051739;28;20124;-71
2023/05/02 11:15:28;;;;;;;5.57;1.00;;;10.40;94.50;;;;;;5051582;28;20087;-70
2023/05/02 11:18:08;;;;;;;5.78;1.40;;;10.40;95.60;;;;;;5033531;28;20037;-70
2023/05/02 11:20:35;;;;;;;5.43;1.92;;;10.40;96.50;;;;;;5033587;28;20508;-71
2023/05/02 11:23:20;;;;;;;9.00;1.40;;;10.30;97.90;;;;;;5051340;28;20061;-71
2023/05/02 11:25:48;;;;;;;5.80;2.55;;;10.00;98.10;;;;;;5051267;28;20052;-71
2023/05/02 11:28:35;;;;;;;8.65;2.47;;;10.10;98.80;;;;;;5051427;28;20036;-71
2023/05/02 11:31:05;;;;;;;7.35;1.80;;;10.20;99.50;;;;;;5051302;28;20045;-71
2023/05/02 11:33:31;;;;;;;3.70;1.20;;;10.20;99.00;;;;;;5033640;28;20378;-71
2023/05/02 11:35:57;;;;;;;2.85;1.00;;;10.30;98.60;;;;;;5051173;28;20096;-71
2023/05/02 11:38:24;;;;;;;6.30;1.52;;;10.30;97.90;;;;;;5051025;28;20527;-71
2023/05/02 11:40:54;;;;;;;2.63;1.23;;;10.50;97.20;;;;;;5050944;28;20041;-71
2023/05/02 11:43:21;;;;;;;2.83;1.20;;;10.80;96.70;;;;;;5051221;28;20409;-71
2023/05/02 11:45:47;;;;;;;5.07;1.20;;;11.00;96.50;;;;;;5033083;28;20091;-71
2023/05/02 11:48:15;;;;;;;3.72;1.40;;;11.10;96.20;;;;;;5051038;28;20045;-71
2023/05/02 11:50:52;;;;;;;2.05;1.20;;;11.20;96.50;;;;;;5051075;28;20535;-71
2023/05/02 11:53:23;;;;;;;5.03;1.55;;;11.10;96.10;;;;;;5050934;28;20041;-70
2023/05/02 11:55:50;;;;;;;3.30;1.10;;;11.00;95.80;;;;;;5050623;28;20163;-70
2023/05/02 11:58:20;;;;;;;4.03;0.90;;;11.10;96.40;;;;;;5050506;28;20508;-69
2023/05/02 12:00:47;;;;;;;2.53;0.70;;;11.00;94.60;;;;;;5051209;28;20045;-72
2023/05/02 12:03:25;;;;;;;3.20;0.80;;;11.00;94.90;;;;;;5053986;28;20045;-70
2023/05/02 12:05:51;;;;;;;2.30;0.80;;;11.20;94.80;;;;;;5054503;28;20033;-72
2023/05/02 12:08:19;;;;;;;3.65;0.95;;;11.30;94.90;;;;;;5054755;28;20044;-70
2023/05/02 12:10:45;;;;;;;2.60;0.85;;;11.40;94.50;;;;;;5054368;28;20102;-72
2023/05/02 12:13:10;;;;;;;4.38;0.75;;;11.40;93.30;;;;;;5054436;28;20497;-71
2023/05/02 12:15:36;;;;;;;3.90;1.30;;;11.50;93.60;;;;;;5054578;28;20075;-71
2023/05/02 12:18:02;;;;;;;3.90;1.30;;;11.50;92.90;;;;;;5054640;28;20039;-71
2023/05/02 12:20:27;;;;;;;3.70;1.05;;;11.40;93.30;;;;;;5054526;28;20079;-71
2023/05/02 12:22:53;;;;;;;1.05;0.60;;;11.40;93.20;;;;;;5054458;28;20091;-71
2023/05/02 12:25:19;;;;;;;1.30;0.50;;;11.10;92.30;;;;;;5036269;28;20555;-71
2023/05/02 12:28:01;;;;;;;0.85;0.50;;;11.20;93.10;;;;;;5054233;28;20455;-71
2023/05/02 12:30:28;;;;;;;0.82;0.50;;;11.30;92.10;;;;;;5036464;28;20041;-71
2023/05/02 12:33:01;;;;;;;2.78;0.80;;;11.40;92.40;;;;;;5054115;28;20520;-71
2023/05/02 12:35:28;;;;;;;1.40;0.38;;;11.50;91.40;;;;;;5054211;28;20051;-71
2023/05/02 12:37:55;;;;;;;1.48;0.57;;;11.60;90.30;;;;;;5053906;28;20071;-71
2023/05/02 12:40:21;;;;;;;4.03;0.60;;;11.60;89.30;;;;;;5054094;28;20123;-69
2023/05/02 12:43:09;;;;;;;0.82;0.30;;;11.70;88.70;;;;;;5054248;28;20087;-70
2023/05/02 12:45:35;;;;;;;3.53;0.65;;;11.40;87.10;;;;;;5052659;28;20029;-72
2023/05/02 12:48:15;;;;;;;2.45;0.50;;;11.50;89.80;;;;;;5053831;28;20566;-72
2023/05/02 12:50:41;;;;;;;1.70;0.80;;;11.40;89.30;;;;;;5054240;28;20091;-71
2023/05/02 12:53:07;;;;;;;1.38;0.50;;;11.80;89.70;;;;;;5054018;28;20045;-71
2023/05/02 12:55:33;;;;;;;3.80;0.77;;;11.90;87.50;;;;;;5053895;28;20042;-71